Terminal Aerodrome Forecast
Issued by NWS

Home | Current Version | Previous Version | Text Only | Print | Product List | Glossary On
Versions: 1 2 3 4 5 6 7 8 9 10 11 12 13 14 15 16 17 18 19 20 21 22 23 24 25 26 27
000
FTUS46 KSGX 290520
TAFSAN
TAF
KSAN 290520Z 2906/3012 VRB04KT P6SM FEW010
     FM291100 17004KT 5SM BR BKN006
     FM291530 VRB05KT P6SM FEW008
     FM292000 29011KT P6SM FEW010
     FM300230 VRB05KT P6SM SCT010
     FM300700 VRB05KT P6SM BKN010=

USA.gov is the U.S. government's official web portal to all federal, state and local government web resources and services.